createdAt,value
2017-12-31T00:00:52.434Z,0.30
2017-12-31T00:03:19.891Z,0.40
2017-12-31T00:05:47.332Z,0.30
2017-12-31T00:08:14.937Z,0.40
2017-12-31T00:10:42.341Z,0.30
2017-12-31T00:13:10.581Z,0.40
2017-12-31T00:15:38.030Z,0.30
2017-12-31T00:18:05.488Z,0.30
2017-12-31T00:20:33.706Z,0.40
2017-12-31T00:23:01.157Z,0.40
2017-12-31T00:25:28.571Z,0.50
2017-12-31T00:27:56.033Z,0.40
2017-12-31T00:30:23.589Z,0.37
2017-12-31T00:32:51.037Z,0.40
2017-12-31T00:35:18.497Z,0.50
2017-12-31T00:37:46.713Z,0.40
2017-12-31T00:40:14.165Z,0.40
2017-12-31T00:42:41.632Z,0.40
2017-12-31T00:45:09.173Z,0.40
2017-12-31T00:47:36.621Z,0.40
2017-12-31T00:50:04.881Z,0.67
2017-12-31T00:52:32.303Z,1.00
2017-12-31T00:54:59.737Z,1.93
2017-12-31T00:57:27.156Z,5.23
2017-12-31T00:59:54.637Z,0.60
2017-12-31T01:02:22.085Z,0.60
2017-12-31T01:04:49.538Z,0.70
2017-12-31T01:07:17.753Z,0.50
2017-12-31T01:09:45.166Z,0.60
2017-12-31T01:12:12.590Z,0.77
2017-12-31T01:14:40.012Z,1.10
2017-12-31T01:17:08.223Z,0.40
2017-12-31T01:19:35.635Z,0.50
2017-12-31T01:22:03.110Z,0.47
2017-12-31T01:24:30.527Z,0.47
2017-12-31T01:26:57.954Z,0.50
2017-12-31T01:29:25.423Z,0.50
2017-12-31T01:31:52.843Z,0.50
2017-12-31T01:34:20.304Z,0.70
2017-12-31T01:36:47.728Z,0.80
2017-12-31T01:39:15.143Z,0.80
2017-12-31T01:41:43.331Z,0.87
2017-12-31T01:44:10.800Z,0.93
2017-12-31T01:46:38.255Z,0.97
2017-12-31T01:49:05.662Z,0.90
2017-12-31T01:51:33.117Z,1.07
2017-12-31T01:54:00.539Z,0.97
2017-12-31T01:56:27.960Z,1.30
2017-12-31T01:58:55.399Z,1.30
2017-12-31T02:01:22.820Z,1.63
2017-12-31T02:03:50.234Z,1.53
2017-12-31T02:06:17.667Z,1.63
2017-12-31T02:08:45.105Z,1.40
2017-12-31T02:11:14.180Z,1.50
2017-12-31T02:13:41.603Z,1.70
2017-12-31T02:16:09.019Z,1.33
2017-12-31T02:18:37.204Z,1.73
2017-12-31T02:21:04.619Z,1.50
2017-12-31T02:23:32.817Z,1.73
2017-12-31T02:26:00.235Z,1.70
2017-12-31T02:28:27.651Z,1.50
2017-12-31T02:30:55.077Z,1.57
2017-12-31T02:33:22.515Z,1.50
2017-12-31T02:35:49.958Z,1.70
2017-12-31T02:38:17.380Z,1.57
2017-12-31T02:40:44.803Z,1.73
2017-12-31T02:43:12.224Z,1.70
2017-12-31T02:45:39.651Z,1.50
2017-12-31T02:48:07.835Z,1.50
2017-12-31T02:50:35.267Z,1.63
2017-12-31T02:53:02.690Z,1.60
2017-12-31T02:55:30.880Z,1.77
2017-12-31T02:57:58.304Z,1.50
2017-12-31T03:00:26.499Z,1.53
2017-12-31T03:02:53.923Z,1.70
2017-12-31T03:05:21.383Z,1.70
2017-12-31T03:07:48.811Z,1.70
2017-12-31T03:10:16.232Z,1.67
2017-12-31T03:12:43.651Z,1.73
2017-12-31T03:15:11.831Z,1.70
2017-12-31T03:17:39.251Z,1.70
2017-12-31T03:20:07.456Z,1.37
2017-12-31T03:22:34.880Z,1.60
2017-12-31T03:25:02.362Z,1.30
2017-12-31T03:27:29.788Z,1.60
2017-12-31T03:29:57.211Z,1.60
2017-12-31T03:32:24.631Z,1.40
2017-12-31T03:34:52.820Z,1.53
2017-12-31T03:37:20.273Z,1.50
2017-12-31T03:39:47.696Z,1.77
2017-12-31T03:42:15.131Z,1.63
2017-12-31T03:44:42.546Z,1.30
2017-12-31T03:47:10.739Z,1.30
2017-12-31T03:49:38.156Z,1.60
2017-12-31T03:52:06.352Z,1.30
2017-12-31T03:54:33.776Z,1.70
2017-12-31T03:57:01.243Z,1.60
2017-12-31T03:59:28.672Z,1.20
2017-12-31T04:01:56.127Z,1.80
2017-12-31T04:04:23.567Z,1.63
2017-12-31T04:06:50.999Z,1.20
2017-12-31T04:09:18.436Z,1.00
2017-12-31T04:11:45.855Z,1.13
2017-12-31T04:14:13.279Z,1.07
2017-12-31T04:16:41.471Z,1.17
2017-12-31T04:19:08.887Z,1.47
2017-12-31T04:21:37.080Z,1.10
2017-12-31T04:24:04.544Z,0.90
2017-12-31T04:26:31.954Z,1.17
2017-12-31T04:28:59.382Z,0.90
2017-12-31T04:31:26.803Z,0.77
2017-12-31T04:33:54.211Z,1.20
2017-12-31T04:36:21.635Z,1.17
2017-12-31T04:38:49.087Z,0.93
2017-12-31T04:41:16.508Z,0.93
2017-12-31T04:43:43.938Z,0.80
2017-12-31T04:46:11.347Z,0.70
2017-12-31T04:48:39.535Z,0.90
2017-12-31T04:51:06.963Z,0.97
2017-12-31T04:53:34.387Z,0.83
2017-12-31T04:56:02.600Z,0.80
2017-12-31T04:58:30.026Z,0.80
2017-12-31T05:00:57.434Z,1.40
2017-12-31T05:03:25.639Z,0.63
2017-12-31T05:05:53.055Z,0.80
2017-12-31T05:08:20.628Z,0.90
2017-12-31T05:10:48.058Z,0.70
2017-12-31T05:13:15.489Z,1.00
2017-12-31T05:15:42.919Z,0.90
2017-12-31T05:18:10.400Z,0.90
2017-12-31T05:20:37.815Z,1.33
2017-12-31T05:23:05.243Z,1.27
2017-12-31T05:25:32.723Z,0.67
2017-12-31T05:28:00.148Z,0.73
2017-12-31T05:30:27.575Z,0.80
2017-12-31T05:32:55.051Z,0.93
2017-12-31T05:35:22.471Z,1.10
2017-12-31T05:37:49.900Z,0.80
2017-12-31T05:40:17.315Z,1.10
2017-12-31T05:42:45.499Z,0.90
2017-12-31T05:45:12.932Z,0.70
2017-12-31T05:47:41.111Z,0.90
2017-12-31T05:50:08.577Z,0.70
2017-12-31T05:52:35.996Z,0.70
2017-12-31T05:55:03.409Z,0.83
2017-12-31T05:57:31.601Z,0.90
2017-12-31T05:59:59.011Z,0.80
2017-12-31T06:02:27.220Z,0.80
2017-12-31T06:04:54.643Z,0.90
2017-12-31T06:07:22.075Z,0.83
2017-12-31T06:09:49.491Z,1.00
2017-12-31T06:12:17.670Z,0.70
2017-12-31T06:14:45.091Z,0.97
2017-12-31T06:17:13.431Z,0.90
2017-12-31T06:19:40.853Z,0.80
2017-12-31T06:22:08.273Z,0.90
2017-12-31T06:24:35.704Z,0.70
2017-12-31T06:27:03.183Z,0.80
2017-12-31T06:29:30.605Z,0.77
2017-12-31T06:31:58.023Z,0.73
2017-12-31T06:34:25.443Z,0.63
2017-12-31T06:36:53.639Z,1.00
2017-12-31T06:39:21.055Z,0.67
2017-12-31T06:41:48.474Z,0.80
2017-12-31T06:44:16.655Z,0.93
2017-12-31T06:46:44.083Z,0.83
2017-12-31T06:49:12.393Z,0.80
2017-12-31T06:51:39.783Z,0.90
2017-12-31T06:54:07.967Z,1.10
2017-12-31T06:56:35.387Z,0.97
2017-12-31T06:59:03.596Z,1.17
2017-12-31T07:01:31.012Z,1.20
2017-12-31T07:03:58.481Z,1.00
2017-12-31T07:06:25.924Z,0.77
2017-12-31T07:08:53.339Z,1.00
2017-12-31T07:11:20.767Z,1.13
2017-12-31T07:13:48.185Z,0.90
2017-12-31T07:16:15.603Z,0.90
2017-12-31T07:18:43.021Z,0.90
2017-12-31T07:21:10.439Z,0.80
2017-12-31T07:23:37.860Z,1.20
2017-12-31T07:26:06.043Z,1.00
2017-12-31T07:28:33.504Z,1.10
2017-12-31T07:31:00.927Z,1.23
2017-12-31T07:33:28.339Z,1.03
2017-12-31T07:35:56.567Z,1.00
2017-12-31T07:38:23.984Z,1.40
2017-12-31T07:40:51.411Z,1.20
2017-12-31T07:43:18.831Z,1.23
2017-12-31T07:45:46.250Z,0.90
2017-12-31T07:48:13.727Z,1.23
2017-12-31T07:50:41.087Z,1.00
2017-12-31T07:53:08.518Z,1.00
2017-12-31T07:55:35.941Z,1.53
2017-12-31T07:58:03.359Z,1.40
2017-12-31T08:00:31.548Z,1.47
2017-12-31T08:02:58.967Z,1.10
2017-12-31T08:05:27.179Z,1.20
2017-12-31T08:07:54.599Z,1.00
2017-12-31T08:10:22.032Z,1.40
2017-12-31T08:12:50.223Z,1.20
2017-12-31T08:15:17.639Z,1.10
2017-12-31T08:17:45.059Z,1.30
2017-12-31T08:20:13.259Z,1.47
2017-12-31T08:22:40.685Z,1.13
2017-12-31T08:25:08.107Z,1.10
2017-12-31T08:27:35.611Z,1.10
2017-12-31T08:30:03.020Z,1.30
2017-12-31T08:32:30.448Z,1.30
2017-12-31T08:34:57.871Z,1.23
2017-12-31T08:37:25.300Z,1.20
2017-12-31T08:39:53.482Z,2.07
2017-12-31T08:42:20.912Z,1.40
2017-12-31T08:44:49.090Z,1.00
2017-12-31T08:47:16.515Z,1.00
2017-12-31T08:49:43.995Z,0.90
2017-12-31T08:52:11.455Z,1.30
2017-12-31T08:54:38.871Z,1.10
2017-12-31T08:57:06.288Z,1.23
2017-12-31T08:59:33.707Z,1.10
2017-12-31T09:02:01.891Z,1.10
2017-12-31T09:04:29.362Z,1.37
2017-12-31T09:06:56.803Z,1.00
2017-12-31T09:09:24.231Z,1.30
2017-12-31T09:11:51.647Z,0.93
2017-12-31T09:14:19.842Z,1.17
2017-12-31T09:16:47.248Z,1.40
2017-12-31T09:19:15.436Z,0.90
2017-12-31T09:21:42.869Z,1.27
2017-12-31T09:24:10.284Z,1.20
2017-12-31T09:26:38.463Z,1.00
2017-12-31T09:29:05.892Z,1.00
2017-12-31T09:31:33.319Z,1.20
2017-12-31T09:34:01.504Z,1.10
2017-12-31T09:36:28.919Z,1.10
2017-12-31T09:38:57.122Z,0.97
2017-12-31T09:41:24.548Z,1.37
2017-12-31T09:43:51.967Z,1.07
2017-12-31T09:46:20.151Z,0.97
2017-12-31T09:48:47.575Z,1.10
2017-12-31T09:51:15.053Z,1.00
2017-12-31T09:53:42.477Z,0.90
2017-12-31T09:56:09.891Z,1.10
2017-12-31T09:58:38.094Z,1.00
2017-12-31T10:01:05.499Z,0.80
2017-12-31T10:03:32.932Z,1.40
2017-12-31T10:06:01.117Z,1.10
2017-12-31T10:08:28.536Z,1.07
2017-12-31T10:10:56.722Z,1.27
2017-12-31T10:13:24.139Z,1.20
2017-12-31T10:15:51.564Z,1.07
2017-12-31T10:18:19.743Z,1.30
2017-12-31T10:20:47.165Z,1.00
2017-12-31T10:23:15.353Z,1.10
2017-12-31T10:25:42.771Z,1.07
2017-12-31T10:28:10.962Z,0.70
2017-12-31T10:30:38.384Z,1.47
2017-12-31T10:33:05.807Z,1.30
2017-12-31T10:35:34.006Z,1.27
2017-12-31T10:38:01.423Z,1.10
2017-12-31T10:40:28.843Z,1.90
2017-12-31T10:42:57.047Z,0.93
2017-12-31T10:45:24.467Z,1.00
2017-12-31T10:47:51.887Z,1.13
2017-12-31T10:50:19.303Z,1.43
2017-12-31T10:52:47.499Z,1.30
2017-12-31T10:55:14.915Z,1.27
2017-12-31T10:57:43.095Z,1.00
2017-12-31T11:00:10.526Z,0.87
2017-12-31T11:02:37.943Z,1.00
2017-12-31T11:05:06.186Z,1.10
2017-12-31T11:07:33.595Z,1.10
2017-12-31T11:10:01.024Z,0.97
2017-12-31T11:12:28.453Z,1.00
2017-12-31T11:14:55.872Z,1.30
2017-12-31T11:17:24.063Z,1.30
2017-12-31T11:19:51.491Z,0.90
2017-12-31T11:22:19.679Z,1.50
2017-12-31T11:24:47.127Z,1.00
2017-12-31T11:27:14.551Z,1.10
2017-12-31T11:29:41.977Z,1.17
2017-12-31T11:32:10.151Z,1.00
2017-12-31T11:34:37.567Z,1.10
2017-12-31T11:37:05.786Z,0.97
2017-12-31T11:39:33.201Z,0.80
2017-12-31T11:42:00.655Z,0.70
2017-12-31T11:44:28.075Z,0.80
2017-12-31T11:46:55.495Z,0.90
2017-12-31T11:49:22.941Z,1.03
2017-12-31T11:51:50.359Z,0.90
2017-12-31T11:54:17.772Z,0.83
2017-12-31T11:56:45.275Z,0.80
2017-12-31T11:59:12.794Z,0.70
2017-12-31T12:01:40.972Z,1.30
2017-12-31T12:04:08.383Z,1.00
2017-12-31T12:06:35.864Z,1.10
2017-12-31T12:09:03.331Z,0.70
2017-12-31T12:11:30.744Z,0.90
2017-12-31T12:13:58.206Z,0.90
2017-12-31T12:16:25.611Z,1.00
2017-12-31T12:18:53.032Z,0.70
2017-12-31T12:21:20.455Z,1.13
2017-12-31T12:23:47.867Z,1.20
2017-12-31T12:26:15.283Z,0.60
2017-12-31T12:28:42.705Z,0.80
2017-12-31T12:31:10.124Z,1.03
2017-12-31T12:33:38.332Z,0.80
2017-12-31T12:36:05.761Z,0.77
2017-12-31T12:38:33.215Z,0.90
2017-12-31T12:41:00.673Z,0.77
2017-12-31T12:43:28.095Z,0.77
2017-12-31T12:45:56.279Z,0.70
2017-12-31T12:48:23.755Z,0.73
2017-12-31T12:50:51.194Z,0.70
2017-12-31T12:53:18.619Z,1.07
2017-12-31T12:55:46.064Z,1.40
2017-12-31T12:58:13.475Z,0.70
2017-12-31T13:00:41.687Z,0.77
2017-12-31T13:03:09.108Z,0.63
2017-12-31T13:05:36.570Z,0.70
2017-12-31T13:08:03.976Z,0.87
2017-12-31T13:10:31.391Z,0.90
2017-12-31T13:12:59.622Z,1.03
2017-12-31T13:15:27.027Z,0.80
2017-12-31T13:17:54.451Z,0.70
2017-12-31T13:20:21.878Z,1.17
2017-12-31T13:22:50.085Z,1.00
2017-12-31T13:25:17.524Z,0.80
2017-12-31T13:27:44.955Z,0.73
2017-12-31T13:30:12.442Z,0.90
2017-12-31T13:32:40.014Z,0.80
2017-12-31T13:35:07.415Z,0.70
2017-12-31T13:37:34.838Z,0.83
2017-12-31T13:40:02.260Z,0.87
2017-12-31T13:42:29.728Z,0.90
2017-12-31T13:44:57.155Z,1.13
2017-12-31T13:47:24.675Z,1.57
2017-12-31T13:49:52.141Z,0.93
2017-12-31T13:52:19.571Z,0.63
2017-12-31T13:54:47.145Z,0.73
2017-12-31T13:57:14.663Z,0.87
2017-12-31T13:59:42.150Z,0.80
2017-12-31T14:02:09.605Z,1.03
2017-12-31T14:04:37.775Z,0.90
2017-12-31T14:07:05.237Z,0.67
2017-12-31T14:09:32.643Z,0.70
2017-12-31T14:12:00.170Z,0.70
2017-12-31T14:14:27.723Z,0.80
2017-12-31T14:16:56.035Z,0.97
2017-12-31T14:19:23.452Z,0.60
2017-12-31T14:21:50.871Z,0.77
2017-12-31T14:24:18.291Z,0.83
2017-12-31T14:26:45.707Z,0.70
2017-12-31T14:29:13.132Z,0.70
2017-12-31T14:31:40.621Z,0.80
2017-12-31T14:34:08.119Z,0.60
2017-12-31T14:36:35.563Z,0.80
2017-12-31T14:39:02.979Z,0.83
2017-12-31T14:41:30.512Z,1.30
2017-12-31T14:43:58.748Z,0.70
2017-12-31T14:46:26.168Z,0.73
2017-12-31T14:48:53.596Z,0.80
2017-12-31T14:51:21.011Z,0.80
2017-12-31T14:53:49.199Z,0.90
2017-12-31T14:56:16.657Z,0.80
2017-12-31T14:58:44.080Z,0.93
2017-12-31T15:01:11.511Z,1.40
2017-12-31T15:03:38.970Z,1.80
2017-12-31T15:06:06.377Z,1.47
2017-12-31T15:08:34.567Z,1.20
2017-12-31T15:11:01.988Z,1.00
2017-12-31T15:13:29.416Z,1.10
2017-12-31T15:15:57.645Z,1.10
2017-12-31T15:18:25.086Z,1.30
2017-12-31T15:20:52.499Z,1.10
2017-12-31T15:23:19.938Z,1.10
2017-12-31T15:25:47.438Z,1.03
2017-12-31T15:28:14.847Z,2.17
2017-12-31T15:30:43.060Z,1.03
2017-12-31T15:33:10.536Z,1.10
2017-12-31T15:35:37.963Z,1.40
2017-12-31T15:38:05.380Z,1.20
2017-12-31T15:40:32.845Z,1.60
2017-12-31T15:43:00.255Z,1.20
2017-12-31T15:45:28.485Z,1.83
2017-12-31T15:47:56.707Z,1.50
2017-12-31T15:50:24.129Z,1.47
2017-12-31T15:52:51.602Z,2.23
2017-12-31T15:55:19.019Z,2.50
2017-12-31T15:57:46.468Z,3.63
2017-12-31T16:00:13.944Z,3.50
2017-12-31T16:02:41.343Z,5.07
2017-12-31T16:05:08.770Z,5.23
2017-12-31T16:07:36.179Z,2.13
2017-12-31T16:10:04.382Z,2.33
2017-12-31T16:12:31.834Z,1.90
2017-12-31T16:14:59.268Z,1.87
2017-12-31T16:17:26.737Z,1.80
2017-12-31T16:19:54.152Z,1.67
2017-12-31T16:22:21.584Z,1.87
2017-12-31T16:24:49.043Z,2.53
2017-12-31T16:27:16.509Z,1.80
2017-12-31T16:29:43.958Z,1.70
2017-12-31T16:32:11.530Z,1.70
2017-12-31T16:34:39.715Z,1.67
2017-12-31T16:37:07.135Z,1.77
2017-12-31T16:39:34.649Z,1.50
2017-12-31T16:42:02.069Z,1.93
2017-12-31T16:44:30.302Z,2.30
2017-12-31T16:46:58.480Z,1.80
2017-12-31T16:49:25.939Z,1.83
2017-12-31T16:51:53.370Z,1.40
2017-12-31T16:54:20.837Z,1.63
2017-12-31T16:56:48.281Z,1.57
2017-12-31T16:59:15.729Z,2.37
2017-12-31T17:01:43.185Z,2.10
2017-12-31T17:04:10.647Z,1.50
2017-12-31T17:06:38.814Z,2.00
2017-12-31T17:09:06.304Z,2.50
2017-12-31T17:11:33.734Z,2.40
2017-12-31T17:14:01.147Z,2.27
2017-12-31T17:16:28.571Z,2.87
2017-12-31T17:18:56.817Z,3.50
2017-12-31T17:21:24.283Z,4.27
2017-12-31T17:23:52.455Z,2.90
2017-12-31T17:26:19.921Z,3.40
2017-12-31T17:28:47.356Z,3.13
2017-12-31T17:31:14.807Z,2.73
2017-12-31T17:33:42.246Z,3.83
2017-12-31T17:36:09.693Z,2.90
2017-12-31T17:38:37.148Z,2.53
2017-12-31T17:41:04.572Z,2.70
2017-12-31T17:43:31.995Z,2.83
2017-12-31T17:45:59.457Z,2.50
2017-12-31T17:48:26.924Z,4.20
2017-12-31T17:50:54.331Z,4.93
2017-12-31T17:53:22.555Z,6.77
2017-12-31T17:55:49.963Z,9.20
2017-12-31T17:58:18.161Z,6.43
2017-12-31T18:00:45.709Z,5.60
2017-12-31T18:03:13.124Z,4.70
2017-12-31T18:05:40.538Z,4.60
2017-12-31T18:08:08.775Z,3.87
2017-12-31T18:10:36.191Z,3.23
2017-12-31T18:13:03.666Z,3.50
2017-12-31T18:15:31.159Z,4.20
2017-12-31T18:17:58.630Z,3.73
2017-12-31T18:20:26.120Z,4.77
2017-12-31T18:22:54.292Z,4.90
2017-12-31T18:25:21.712Z,5.33
2017-12-31T18:27:49.940Z,5.00
2017-12-31T18:30:17.375Z,4.77
2017-12-31T18:32:44.834Z,5.53
2017-12-31T18:35:12.281Z,4.97
2017-12-31T18:37:39.733Z,4.90
2017-12-31T18:40:07.146Z,4.90
2017-12-31T18:42:34.575Z,4.83
2017-12-31T18:45:02.016Z,5.87
2017-12-31T18:47:29.435Z,7.20
2017-12-31T18:49:56.890Z,5.50
2017-12-31T18:52:24.295Z,5.00
2017-12-31T18:54:51.707Z,4.40
2017-12-31T18:57:19.895Z,4.30
2017-12-31T18:59:47.303Z,4.30
2017-12-31T19:02:15.483Z,5.33
2017-12-31T19:04:42.898Z,6.00
2017-12-31T19:07:11.078Z,7.77
2017-12-31T19:09:38.494Z,8.37
2017-12-31T19:12:06.719Z,8.03
2017-12-31T19:14:34.155Z,7.90
2017-12-31T19:17:01.613Z,8.03
2017-12-31T19:19:29.015Z,8.17
2017-12-31T19:21:56.440Z,9.83
2017-12-31T19:24:23.867Z,8.27
2017-12-31T19:26:52.097Z,7.90
2017-12-31T19:31:46.948Z,6.40
2017-12-31T19:34:14.367Z,6.13
2017-12-31T19:36:41.841Z,6.10
2017-12-31T19:39:09.281Z,6.07
2017-12-31T19:41:36.699Z,6.30
2017-12-31T19:44:04.871Z,6.30
2017-12-31T19:46:32.344Z,6.70
2017-12-31T19:48:59.747Z,9.23
2017-12-31T19:51:27.163Z,8.50
2017-12-31T19:53:55.398Z,8.47
2017-12-31T19:56:22.859Z,9.50
2017-12-31T19:58:50.267Z,9.70
2017-12-31T20:01:17.688Z,8.47
2017-12-31T20:03:45.173Z,9.53
2017-12-31T20:06:12.622Z,9.67
2017-12-31T20:08:40.103Z,10.53
2017-12-31T20:11:07.555Z,8.73
2017-12-31T20:13:35.054Z,7.47
2017-12-31T20:16:02.488Z,6.30
2017-12-31T20:18:29.952Z,6.00
2017-12-31T20:20:58.119Z,5.43
2017-12-31T20:23:25.596Z,4.70
2017-12-31T20:25:53.043Z,5.50
2017-12-31T20:28:20.489Z,5.93
2017-12-31T20:30:47.900Z,6.10
2017-12-31T20:33:15.399Z,5.40
2017-12-31T20:35:43.622Z,5.60
2017-12-31T20:38:11.061Z,5.83
2017-12-31T20:40:38.509Z,6.30
2017-12-31T20:43:05.928Z,4.70
2017-12-31T20:45:33.394Z,4.90
2017-12-31T20:48:00.829Z,4.50
2017-12-31T20:50:28.272Z,3.70
2017-12-31T20:52:55.686Z,3.70
2017-12-31T20:55:23.103Z,3.63
2017-12-31T20:57:51.335Z,4.07
2017-12-31T21:00:18.739Z,3.50
2017-12-31T21:02:46.160Z,4.60
2017-12-31T21:05:13.637Z,3.60
2017-12-31T21:07:41.084Z,4.00
2017-12-31T21:10:08.488Z,4.30
2017-12-31T21:12:35.915Z,4.43
2017-12-31T21:15:04.095Z,4.07
2017-12-31T21:17:31.521Z,4.70
2017-12-31T21:19:59.711Z,5.70
2017-12-31T21:22:27.162Z,7.10
2017-12-31T21:24:54.568Z,8.20
2017-12-31T21:27:22.029Z,8.97
2017-12-31T21:29:49.490Z,9.00
2017-12-31T21:32:16.935Z,10.07
2017-12-31T21:34:44.419Z,9.50
2017-12-31T21:37:11.887Z,10.73
2017-12-31T21:39:39.292Z,8.40
2017-12-31T21:42:07.471Z,7.40
2017-12-31T21:44:34.887Z,6.43
2017-12-31T21:47:02.319Z,5.63
2017-12-31T21:49:29.809Z,4.93
2017-12-31T21:51:57.223Z,4.87
2017-12-31T21:54:24.651Z,5.00
2017-12-31T21:56:52.122Z,4.97
2017-12-31T21:59:19.622Z,5.20
2017-12-31T22:01:47.082Z,4.67
2017-12-31T22:04:15.306Z,5.83
2017-12-31T22:06:42.745Z,5.30
2017-12-31T22:09:11.707Z,6.63
2017-12-31T22:11:39.149Z,5.30
2017-12-31T22:14:06.567Z,6.00
2017-12-31T22:16:34.025Z,4.80
2017-12-31T22:19:01.476Z,4.77
2017-12-31T22:21:28.926Z,4.87
2017-12-31T22:23:56.385Z,5.13
2017-12-31T22:26:23.801Z,5.50
2017-12-31T22:28:51.258Z,5.13
2017-12-31T22:31:18.656Z,5.23
2017-12-31T22:33:46.114Z,5.10
2017-12-31T22:36:13.564Z,5.83
2017-12-31T22:38:41.010Z,5.60
2017-12-31T22:41:08.474Z,5.20
2017-12-31T22:43:35.931Z,5.50
2017-12-31T22:46:04.146Z,5.93
2017-12-31T22:48:31.594Z,6.50
2017-12-31T22:50:59.057Z,5.43
2017-12-31T22:53:26.475Z,7.07
2017-12-31T22:55:54.659Z,6.70
2017-12-31T22:58:22.877Z,6.40
2017-12-31T23:00:50.380Z,18.77
2017-12-31T23:03:18.593Z,52.43
2017-12-31T23:05:46.132Z,64.20
2017-12-31T23:08:13.597Z,86.93
2017-12-31T23:10:41.012Z,108.57
2017-12-31T23:13:08.439Z,106.53
2017-12-31T23:15:35.867Z,111.20
2017-12-31T23:18:03.299Z,119.80
2017-12-31T23:20:30.722Z,82.70
2017-12-31T23:22:58.919Z,95.17
2017-12-31T23:25:26.348Z,85.97
2017-12-31T23:27:53.857Z,84.13
2017-12-31T23:30:21.920Z,71.30
2017-12-31T23:32:50.132Z,67.60
2017-12-31T23:35:17.593Z,60.87
2017-12-31T23:37:45.015Z,84.37
2017-12-31T23:40:12.435Z,69.73
2017-12-31T23:42:39.859Z,53.60
2017-12-31T23:45:07.280Z,25.67
2017-12-31T23:47:34.749Z,21.20
2017-12-31T23:50:02.160Z,18.57
2017-12-31T23:52:29.637Z,18.43
2017-12-31T23:54:57.057Z,13.53
2017-12-31T23:57:24.480Z,13.90
2017-12-31T23:59:51.903Z,13.33
